Time;durP1;ratioP1;P1;durP2;ratioP2;P2;SDS_P1;SDS_P2;PMS_P1;PMS_P2;Temp;Humidity;BMP_temperature;BMP_pressure;BME280_temperature;BME280_humidity;BME280_pressure;Samples;Min_cycle;Max_cycle;Signal;HPM_P1;HPM_P2
2023/04/07 00:00:02;;;;;;;0.90;0.50;;;16.70;68.60;;;;;;5018953;28;20261;-74
2023/04/07 00:02:28;;;;;;;0.30;0.25;;;16.70;68.60;;;;;;5032487;28;20617;-74
2023/04/07 00:04:56;;;;;;;0.70;0.40;;;16.70;68.60;;;;;;5039998;28;20151;-74
2023/04/07 00:07:22;;;;;;;0.40;0.30;;;16.70;68.60;;;;;;5038693;28;20052;-74
2023/04/07 00:09:47;;;;;;;0.50;0.35;;;16.70;68.60;;;;;;5039158;28;22033;-74
2023/04/07 00:12:13;;;;;;;1.02;0.45;;;16.70;68.60;;;;;;5038098;28;20037;-74
2023/04/07 00:14:38;;;;;;;0.30;0.30;;;16.70;68.60;;;;;;5034932;28;20049;-74
2023/04/07 00:17:04;;;;;;;0.32;0.32;;;16.70;68.60;;;;;;5040398;28;20403;-74
2023/04/07 00:19:30;;;;;;;0.50;0.50;;;16.70;68.60;;;;;;5038034;28;20045;-74
2023/04/07 00:21:55;;;;;;;0.40;0.30;;;16.70;68.60;;;;;;5026147;28;20098;-74
2023/04/07 00:24:21;;;;;;;0.90;0.38;;;16.70;68.60;;;;;;5038655;28;20413;-75
2023/04/07 00:26:46;;;;;;;0.90;0.40;;;16.70;68.60;;;;;;5036290;28;20053;-74
2023/04/07 00:29:12;;;;;;;0.90;0.40;;;16.70;68.70;;;;;;5038009;28;20056;-74
2023/04/07 00:31:37;;;;;;;1.77;0.50;;;16.60;68.60;;;;;;5039653;28;20136;-74
2023/04/07 00:34:03;;;;;;;0.25;0.22;;;16.70;68.60;;;;;;5035635;28;20465;-74
2023/04/07 00:36:29;;;;;;;1.23;0.30;;;16.70;68.60;;;;;;5037726;28;20041;-74
2023/04/07 00:38:54;;;;;;;0.43;0.38;;;16.70;68.60;;;;;;5041593;28;20033;-74
2023/04/07 00:41:20;;;;;;;0.50;0.32;;;16.70;68.60;;;;;;5033470;28;20418;-74
2023/04/07 00:43:45;;;;;;;0.30;0.30;;;16.60;68.50;;;;;;5037852;28;20409;-75
2023/04/07 00:46:11;;;;;;;0.30;0.30;;;16.60;68.50;;;;;;5042201;28;20045;-74
2023/04/07 00:48:37;;;;;;;0.30;0.30;;;16.60;68.40;;;;;;5034853;28;20045;-74
2023/04/07 00:51:03;;;;;;;0.50;0.40;;;16.60;68.60;;;;;;5032072;28;20038;-74
2023/04/07 00:53:28;;;;;;;0.50;0.50;;;16.60;68.40;;;;;;5040056;28;20045;-74
2023/04/07 00:55:54;;;;;;;0.40;0.40;;;16.60;68.50;;;;;;5038662;28;20045;-74
2023/04/07 00:58:20;;;;;;;0.73;0.30;;;16.60;68.40;;;;;;5038364;28;20029;-74
2023/04/07 01:00:51;;;;;;;1.85;0.60;;;16.60;68.50;;;;;;5039365;28;20091;-74
2023/04/07 01:03:19;;;;;;;0.50;0.50;;;16.60;68.30;;;;;;5036154;28;20041;-74
2023/04/07 01:05:57;;;;;;;0.43;0.40;;;16.60;68.30;;;;;;5038489;28;20049;-74
2023/04/07 01:08:32;;;;;;;0.40;0.40;;;16.60;68.30;;;;;;5037052;28;20030;-74
2023/04/07 01:11:22;;;;;;;0.60;0.47;;;16.60;68.40;;;;;;5036209;28;20041;-74
2023/04/07 01:13:51;;;;;;;0.68;0.40;;;16.60;68.40;;;;;;5038857;28;20556;-74
2023/04/07 01:16:38;;;;;;;0.35;0.30;;;16.60;68.30;;;;;;5038538;28;20034;-74
2023/04/07 01:19:12;;;;;;;0.52;0.40;;;16.60;68.40;;;;;;5037066;28;20128;-74
2023/04/07 01:21:38;;;;;;;1.25;0.40;;;16.60;68.30;;;;;;5035945;28;20064;-74
2023/04/07 01:24:24;;;;;;;0.60;0.30;;;16.60;68.30;;;;;;5033928;28;20057;-74
2023/04/07 01:26:50;;;;;;;0.57;0.57;;;16.60;68.30;;;;;;5037584;28;20128;-74
2023/04/07 01:29:36;;;;;;;0.45;0.30;;;16.60;68.30;;;;;;5043980;28;20117;-74
2023/04/07 01:32:03;;;;;;;0.43;0.43;;;16.60;68.30;;;;;;5067525;28;20033;-74
2023/04/07 01:34:29;;;;;;;0.60;0.32;;;16.60;68.20;;;;;;5064375;28;20041;-74
2023/04/07 01:36:55;;;;;;;0.85;0.40;;;16.60;68.20;;;;;;5050695;28;20040;-74
2023/04/07 01:39:21;;;;;;;0.50;0.50;;;16.60;68.20;;;;;;5048921;28;20504;-74
2023/04/07 01:41:46;;;;;;;0.55;0.47;;;16.60;68.30;;;;;;5032546;28;20462;-74
2023/04/07 01:44:12;;;;;;;0.95;0.40;;;16.60;68.30;;;;;;5017101;28;20049;-74
2023/04/07 01:46:37;;;;;;;0.82;0.40;;;16.60;68.30;;;;;;5043965;28;20040;-74
2023/04/07 01:49:03;;;;;;;0.40;0.40;;;16.60;68.20;;;;;;5035345;28;20073;-74
2023/04/07 01:51:29;;;;;;;0.35;0.35;;;16.60;68.30;;;;;;5058286;28;20033;-74
2023/04/07 01:53:55;;;;;;;0.70;0.45;;;16.50;68.20;;;;;;5032662;28;20029;-74
2023/04/07 01:56:21;;;;;;;0.40;0.40;;;16.50;68.20;;;;;;5049915;28;20086;-74
2023/04/07 01:58:46;;;;;;;0.40;0.40;;;16.60;68.20;;;;;;5044602;28;23962;-74
2023/04/07 02:01:13;;;;;;;0.60;0.32;;;16.50;68.10;;;;;;5044696;28;20025;-74
2023/04/07 02:04:00;;;;;;;0.50;0.40;;;16.50;68.20;;;;;;5022495;28;20370;-74
2023/04/07 02:06:30;;;;;;;0.38;0.30;;;16.50;68.10;;;;;;5042843;28;20033;-74
2023/04/07 02:08:58;;;;;;;0.60;0.30;;;16.50;68.10;;;;;;5040103;28;20427;-74
2023/04/07 02:11:23;;;;;;;0.30;0.30;;;16.50;68.10;;;;;;5033017;28;20295;-74
2023/04/07 02:13:50;;;;;;;0.68;0.40;;;16.50;68.10;;;;;;5045547;28;20045;-74
2023/04/07 02:16:16;;;;;;;0.50;0.20;;;16.50;68.10;;;;;;5029978;28;20041;-74
2023/04/07 02:18:42;;;;;;;0.30;0.30;;;16.50;68.10;;;;;;5028290;28;20099;-74
2023/04/07 02:21:08;;;;;;;0.20;0.20;;;16.50;68.20;;;;;;5042452;28;20568;-73
2023/04/07 02:23:36;;;;;;;0.28;0.28;;;16.50;68.10;;;;;;5043366;28;20039;-73
2023/04/07 02:26:02;;;;;;;1.33;0.47;;;16.50;68.10;;;;;;5065448;28;20036;-73
2023/04/07 02:28:27;;;;;;;0.38;0.30;;;16.50;68.10;;;;;;5047896;28;20036;-73
2023/04/07 02:30:53;;;;;;;0.50;0.30;;;16.50;68.00;;;;;;5046544;28;20033;-73
2023/04/07 02:33:19;;;;;;;0.20;0.20;;;16.50;68.20;;;;;;5049094;28;20754;-73
2023/04/07 02:35:44;;;;;;;0.57;0.50;;;16.50;68.00;;;;;;5064859;28;20044;-73
2023/04/07 02:38:10;;;;;;;0.52;0.25;;;16.50;68.00;;;;;;5063160;28;20578;-73
2023/04/07 02:40:35;;;;;;;0.73;0.47;;;16.50;67.90;;;;;;5047468;28;20062;-73
2023/04/07 02:43:01;;;;;;;0.38;0.38;;;16.50;68.00;;;;;;5066591;28;20082;-73
2023/04/07 02:45:27;;;;;;;0.60;0.40;;;16.50;68.00;;;;;;5062920;28;20033;-81
2023/04/07 02:47:52;;;;;;;0.50;0.40;;;16.50;68.00;;;;;;5065999;28;20056;-81
2023/04/07 02:50:18;;;;;;;0.57;0.50;;;16.50;68.00;;;;;;5063187;28;20409;-82
2023/04/07 02:52:44;;;;;;;0.93;0.40;;;16.40;67.90;;;;;;5063797;28;20486;-80
2023/04/07 02:55:09;;;;;;;0.73;0.52;;;16.50;68.10;;;;;;5064208;28;20029;-80
2023/04/07 02:57:35;;;;;;;0.32;0.32;;;16.50;68.00;;;;;;5046171;28;20043;-80
2023/04/07 03:00:00;;;;;;;0.75;0.50;;;16.40;67.90;;;;;;5047499;28;20032;-80
2023/04/07 03:02:26;;;;;;;0.38;0.25;;;16.40;67.90;;;;;;5020131;28;20040;-79
2023/04/07 03:04:52;;;;;;;1.80;0.50;;;16.50;67.80;;;;;;5044348;28;20490;-80
2023/04/07 03:07:17;;;;;;;0.40;0.40;;;16.40;67.80;;;;;;5040743;28;20413;-80
2023/04/07 03:09:43;;;;;;;0.57;0.45;;;16.40;67.80;;;;;;5046256;28;20070;-80
2023/04/07 03:12:10;;;;;;;1.73;0.63;;;16.40;67.80;;;;;;5044292;28;20037;-80
2023/04/07 03:14:36;;;;;;;1.75;0.60;;;16.40;67.90;;;;;;5021718;28;20033;-81
2023/04/07 03:17:02;;;;;;;1.00;0.80;;;16.50;68.70;;;;;;5044373;28;20086;-81
2023/04/07 03:19:27;;;;;;;0.57;0.57;;;16.40;67.90;;;;;;5043835;28;20033;-80
2023/04/07 03:21:53;;;;;;;0.88;0.60;;;16.50;67.90;;;;;;5044605;28;20040;-80
2023/04/07 03:24:19;;;;;;;0.88;0.70;;;16.40;67.90;;;;;;5042028;28;20053;-81
2023/04/07 03:26:44;;;;;;;0.90;0.50;;;16.40;67.90;;;;;;5026451;28;20071;-80
2023/04/07 03:29:10;;;;;;;0.63;0.60;;;16.50;68.70;;;;;;5044460;28;20475;-81
2023/04/07 03:31:36;;;;;;;0.63;0.40;;;16.50;67.80;;;;;;5041335;28;20605;-81
2023/04/07 03:34:03;;;;;;;0.88;0.75;;;16.50;67.80;;;;;;5041959;28;20487;-81
2023/04/07 03:36:28;;;;;;;0.50;0.47;;;16.50;67.80;;;;;;5044133;28;20060;-80
2023/04/07 03:38:54;;;;;;;0.80;0.50;;;16.50;67.90;;;;;;5042139;28;20068;-81
2023/04/07 03:41:20;;;;;;;0.90;0.90;;;16.50;67.80;;;;;;5044558;28;20056;-82
2023/04/07 03:43:45;;;;;;;0.65;0.63;;;16.50;67.80;;;;;;5046307;28;20474;-82
2023/04/07 03:46:11;;;;;;;0.55;0.55;;;16.40;67.80;;;;;;5065461;28;20033;-82
2023/04/07 03:48:36;;;;;;;0.60;0.40;;;16.40;67.80;;;;;;5014253;28;20442;-80
2023/04/07 03:51:02;;;;;;;0.50;0.50;;;16.40;67.90;;;;;;5041864;28;20041;-81
2023/04/07 03:53:28;;;;;;;0.47;0.40;;;16.40;67.90;;;;;;5042834;28;20068;-81
2023/04/07 03:55:53;;;;;;;0.50;0.50;;;16.40;67.80;;;;;;5059933;28;20132;-80
2023/04/07 03:58:19;;;;;;;0.55;0.45;;;16.40;67.90;;;;;;5049620;28;20041;-81
2023/04/07 04:00:44;;;;;;;0.55;0.45;;;16.50;67.90;;;;;;5042222;28;20111;-81
2023/04/07 04:03:10;;;;;;;0.47;0.47;;;16.50;67.90;;;;;;5024481;28;20302;-80
2023/04/07 04:05:36;;;;;;;0.60;0.40;;;16.40;67.70;;;;;;5041899;28;20049;-81
2023/04/07 04:08:01;;;;;;;0.82;0.52;;;16.40;67.80;;;;;;5024907;28;20134;-81
2023/04/07 04:10:27;;;;;;;0.77;0.40;;;16.50;67.80;;;;;;5022600;28;20045;-82
2023/04/07 04:12:52;;;;;;;0.50;0.50;;;16.50;67.80;;;;;;5035418;28;20064;-82
2023/04/07 04:15:18;;;;;;;1.75;0.38;;;16.40;67.80;;;;;;5029199;28;20099;-82
2023/04/07 04:17:43;;;;;;;0.47;0.40;;;16.40;67.80;;;;;;5026665;28;20128;-82
2023/04/07 04:20:09;;;;;;;0.50;0.40;;;16.50;67.80;;;;;;5043419;28;20707;-82
2023/04/07 04:22:35;;;;;;;0.88;0.50;;;16.50;67.90;;;;;;5042895;28;20576;-81
2023/04/07 04:25:00;;;;;;;0.73;0.50;;;16.40;67.80;;;;;;5043039;28;20528;-82
2023/04/07 04:27:26;;;;;;;0.40;0.40;;;16.50;67.90;;;;;;5041537;28;20041;-82
2023/04/07 04:29:52;;;;;;;0.60;0.50;;;16.40;67.90;;;;;;5044031;28;20074;-81
2023/04/07 04:32:18;;;;;;;0.35;0.30;;;16.50;68.80;;;;;;5041097;28;20486;-81
2023/04/07 04:34:44;;;;;;;0.95;0.50;;;16.50;67.90;;;;;;5039927;28;20151;-82
2023/04/07 04:37:10;;;;;;;0.60;0.40;;;16.50;68.00;;;;;;5042202;28;20044;-82
2023/04/07 04:39:36;;;;;;;0.50;0.40;;;16.50;67.80;;;;;;5047200;28;20037;-81
2023/04/07 04:42:02;;;;;;;0.77;0.35;;;16.40;68.60;;;;;;5042222;28;20515;-79
2023/04/07 04:44:29;;;;;;;0.93;0.60;;;16.50;67.90;;;;;;5043473;28;20041;-81
2023/04/07 04:46:55;;;;;;;0.30;0.20;;;16.50;68.00;;;;;;5039613;28;20128;-82
2023/04/07 04:49:20;;;;;;;0.30;0.30;;;16.50;68.20;;;;;;5026332;28;20120;-81
2023/04/07 04:51:46;;;;;;;1.05;0.40;;;16.50;68.00;;;;;;5041845;28;20762;-82
2023/04/07 04:54:11;;;;;;;0.40;0.40;;;16.50;68.50;;;;;;5023681;28;20182;-81
2023/04/07 04:56:37;;;;;;;3.70;0.60;;;16.50;67.90;;;;;;5037628;28;20033;-83
2023/04/07 04:59:03;;;;;;;0.80;0.47;;;16.50;68.70;;;;;;5025111;28;20041;-88
2023/04/07 05:01:29;;;;;;;1.23;0.60;;;16.50;68.50;;;;;;5045495;28;20105;-85
2023/04/07 05:03:55;;;;;;;0.70;0.50;;;16.50;68.30;;;;;;5016331;28;20593;-85
2023/04/07 05:06:20;;;;;;;3.53;0.75;;;16.50;68.70;;;;;;5014909;28;20037;-87
2023/04/07 05:08:46;;;;;;;0.85;0.60;;;16.50;68.70;;;;;;5041555;28;20127;-85
2023/04/07 05:11:12;;;;;;;1.60;0.80;;;16.60;69.00;;;;;;5049508;28;20033;-81
2023/04/07 05:13:37;;;;;;;0.47;0.40;;;16.50;69.00;;;;;;5045328;28;20076;-79
2023/04/07 05:16:03;;;;;;;1.42;0.95;;;16.50;69.80;;;;;;5046948;28;20044;-82
2023/04/07 05:18:29;;;;;;;2.50;1.27;;;16.60;70.10;;;;;;5029026;28;21479;-82
2023/04/07 05:20:55;;;;;;;2.15;1.13;;;16.60;70.70;;;;;;5046558;28;20341;-80
2023/04/07 05:23:20;;;;;;;2.22;1.20;;;16.60;70.30;;;;;;5030082;28;20548;-82
2023/04/07 05:25:46;;;;;;;1.98;1.27;;;16.60;70.50;;;;;;5044249;28;20560;-76
2023/04/07 05:28:11;;;;;;;1.42;0.98;;;16.60;70.60;;;;;;5038382;28;20072;-77
2023/04/07 05:30:37;;;;;;;2.40;1.58;;;16.60;71.40;;;;;;5043115;28;20036;-81
2023/04/07 05:33:03;;;;;;;1.40;1.30;;;16.60;71.40;;;;;;5040090;28;20135;-86
2023/04/07 05:35:28;;;;;;;2.30;1.30;;;16.60;71.70;;;;;;5030399;28;20098;-81
2023/04/07 05:37:54;;;;;;;1.85;1.42;;;16.60;71.10;;;;;;5019046;28;20048;-86
2023/04/07 05:40:19;;;;;;;3.92;2.00;;;16.60;71.10;;;;;;5038662;28;20040;-80
2023/04/07 05:42:45;;;;;;;2.30;1.80;;;16.70;72.00;;;;;;5043786;28;20028;-81
2023/04/07 05:45:11;;;;;;;2.58;1.50;;;16.70;71.60;;;;;;5048386;28;20048;-79
2023/04/07 05:47:36;;;;;;;3.58;1.67;;;16.70;71.50;;;;;;5015915;28;20052;-84
2023/04/07 05:50:02;;;;;;;1.98;1.70;;;16.70;70.30;;;;;;5029626;28;20044;-86
2023/04/07 05:52:27;;;;;;;1.65;1.40;;;16.60;71.00;;;;;;5030293;28;20521;-85
2023/04/07 05:54:53;;;;;;;3.72;1.52;;;16.60;71.40;;;;;;5048552;28;20040;-83
2023/04/07 05:57:19;;;;;;;4.00;1.50;;;16.60;71.70;;;;;;5064900;28;20529;-88
2023/04/07 05:59:45;;;;;;;3.88;1.20;;;16.60;71.70;;;;;;5063827;28;20040;-85
2023/04/07 06:02:10;;;;;;;2.95;1.52;;;16.60;71.60;;;;;;5049441;28;20106;-82
2023/04/07 06:04:38;;;;;;;2.03;1.30;;;16.60;71.40;;;;;;5044395;28;20056;-81
2023/04/07 06:07:03;;;;;;;1.83;1.15;;;16.60;71.50;;;;;;5031471;28;20525;-85
2023/04/07 06:09:29;;;;;;;2.42;2.00;;;16.60;71.70;;;;;;5048213;28;20040;-85
2023/04/07 06:11:56;;;;;;;7.05;2.75;;;16.60;71.40;;;;;;5047627;28;20414;-82
2023/04/07 06:14:22;;;;;;;2.30;2.17;;;16.60;70.90;;;;;;5049509;28;20040;-82
2023/04/07 06:16:47;;;;;;;3.60;3.15;;;16.60;70.90;;;;;;5047804;28;20051;-83
2023/04/07 06:19:13;;;;;;;3.40;3.20;;;16.60;69.50;;;;;;5062284;28;20037;-86
2023/04/07 06:21:38;;;;;;;3.80;3.50;;;16.50;70.50;;;;;;5031236;28;20047;-82
2023/04/07 06:24:05;;;;;;;6.75;4.00;;;16.60;70.00;;;;;;5047584;28;20044;-84
2023/04/07 06:26:31;;;;;;;4.43;3.20;;;16.60;69.20;;;;;;5065805;28;20045;-84
2023/04/07 06:28:57;;;;;;;3.58;3.28;;;16.60;70.10;;;;;;5048505;28;20032;-84
2023/04/07 06:31:23;;;;;;;4.53;3.08;;;16.60;69.70;;;;;;5066048;28;20049;-82
2023/04/07 06:33:48;;;;;;;4.45;3.20;;;16.60;70.10;;;;;;5046315;28;20560;-82
2023/04/07 06:36:14;;;;;;;4.75;2.72;;;16.60;70.30;;;;;;5048308;28;20223;-84
2023/04/07 06:38:39;;;;;;;3.67;2.53;;;16.60;71.20;;;;;;5045513;28;20413;-83
2023/04/07 06:41:06;;;;;;;8.00;2.28;;;16.60;70.70;;;;;;5027384;28;20057;-83
2023/04/07 06:43:32;;;;;;;2.30;1.95;;;16.60;70.00;;;;;;5062880;28;20048;-83
2023/04/07 06:45:57;;;;;;;2.88;2.13;;;16.60;70.50;;;;;;5048397;28;20098;-84
2023/04/07 06:48:23;;;;;;;4.05;2.03;;;16.60;69.30;;;;;;5064082;28;20050;-83
2023/04/07 06:50:48;;;;;;;2.47;2.00;;;16.60;68.80;;;;;;5064928;28;20052;-83
2023/04/07 06:53:14;;;;;;;2.25;1.70;;;16.60;69.00;;;;;;5063625;28;20140;-83
2023/04/07 06:55:40;;;;;;;4.20;1.73;;;16.60;69.00;;;;;;5064229;28;20076;-80
2023/04/07 06:58:06;;;;;;;2.20;1.90;;;16.60;69.20;;;;;;5064028;28;20097;-83
2023/04/07 07:00:31;;;;;;;3.17;1.60;;;16.60;69.40;;;;;;5066282;28;20040;-83
2023/04/07 07:02:57;;;;;;;2.28;1.70;;;16.60;69.40;;;;;;5030178;28;20048;-83
2023/04/07 07:05:22;;;;;;;1.67;1.48;;;16.60;69.60;;;;;;5065451;28;20541;-84
2023/04/07 07:07:48;;;;;;;5.53;1.85;;;16.60;69.80;;;;;;5047826;28;20052;-83
2023/04/07 07:10:14;;;;;;;2.25;1.45;;;16.60;69.80;;;;;;5073959;28;20062;-84
2023/04/07 07:12:40;;;;;;;1.75;1.65;;;16.60;69.80;;;;;;5034115;28;20044;-84
2023/04/07 07:15:06;;;;;;;2.63;1.60;;;16.60;69.80;;;;;;5044515;28;20094;-83
2023/04/07 07:17:31;;;;;;;1.70;1.30;;;16.60;69.90;;;;;;5046383;28;20075;-83
2023/04/07 07:19:57;;;;;;;2.47;1.42;;;16.60;70.00;;;;;;5031280;28;20033;-83
2023/04/07 07:22:23;;;;;;;3.22;1.50;;;16.60;70.80;;;;;;5074458;28;20036;-84
2023/04/07 07:24:48;;;;;;;6.13;1.50;;;16.60;70.10;;;;;;5064345;28;20033;-83
2023/04/07 07:27:14;;;;;;;2.33;1.40;;;16.60;70.20;;;;;;5046927;28;20153;-83
2023/04/07 07:29:40;;;;;;;3.10;1.70;;;16.60;70.10;;;;;;5047606;28;20038;-83
2023/04/07 07:32:06;;;;;;;1.88;1.52;;;16.60;70.10;;;;;;5064016;28;20077;-84
2023/04/07 07:34:31;;;;;;;1.63;1.52;;;16.60;70.20;;;;;;5046649;28;20086;-84
2023/04/07 07:36:58;;;;;;;2.92;1.52;;;16.60;70.20;;;;;;5059439;28;20053;-83
2023/04/07 07:39:24;;;;;;;1.90;1.30;;;16.60;70.50;;;;;;5057549;28;20048;-83
2023/04/07 07:41:50;;;;;;;1.60;1.48;;;16.60;70.30;;;;;;5046031;28;20131;-83
2023/04/07 07:44:15;;;;;;;1.55;1.40;;;16.60;70.20;;;;;;5062986;28;20052;-84
2023/04/07 07:46:41;;;;;;;1.80;1.58;;;16.60;70.00;;;;;;5047463;28;20048;-84
2023/04/07 07:49:06;;;;;;;1.30;1.20;;;16.60;69.90;;;;;;5061656;28;20699;-84
2023/04/07 07:51:32;;;;;;;2.75;1.20;;;16.70;69.80;;;;;;5030116;28;20082;-83
2023/04/07 07:53:58;;;;;;;1.80;1.30;;;16.70;69.60;;;;;;5063537;28;20656;-83
2023/04/07 07:56:23;;;;;;;1.33;1.00;;;16.70;69.50;;;;;;5063536;28;20509;-83
2023/04/07 07:58:49;;;;;;;2.92;1.17;;;16.70;69.50;;;;;;5061848;28;20036;-82
2023/04/07 08:01:14;;;;;;;1.27;1.17;;;16.70;69.70;;;;;;5063079;28;20144;-83
2023/04/07 08:03:40;;;;;;;1.58;1.30;;;16.80;69.70;;;;;;5042106;28;20502;-83
2023/04/07 08:06:08;;;;;;;1.10;1.00;;;16.70;69.70;;;;;;5076676;28;20066;-83
2023/04/07 08:08:33;;;;;;;1.42;1.33;;;16.70;69.50;;;;;;5062179;28;20528;-85
2023/04/07 08:10:59;;;;;;;1.30;1.05;;;16.70;69.90;;;;;;5046302;28;20041;-84
2023/04/07 08:13:25;;;;;;;1.10;1.10;;;16.70;69.60;;;;;;5063837;28;20555;-85
2023/04/07 08:15:50;;;;;;;0.80;0.80;;;16.70;69.60;;;;;;5059484;28;20033;-83
2023/04/07 08:18:16;;;;;;;0.93;0.80;;;16.70;69.40;;;;;;5046871;28;20497;-85
2023/04/07 08:20:41;;;;;;;2.05;1.40;;;16.80;69.60;;;;;;5064402;28;20117;-84
2023/04/07 08:23:07;;;;;;;3.08;1.10;;;16.70;69.40;;;;;;5046544;28;20036;-84
2023/04/07 08:25:33;;;;;;;2.25;1.05;;;16.80;69.40;;;;;;5063065;28;20145;-84
2023/04/07 08:27:59;;;;;;;1.42;0.95;;;16.80;69.20;;;;;;5046878;28;20028;-85
2023/04/07 08:30:24;;;;;;;1.25;1.17;;;16.80;69.10;;;;;;5057339;28;20033;-84
2023/04/07 08:32:50;;;;;;;2.22;1.15;;;16.80;69.10;;;;;;5041509;28;20041;-84
2023/04/07 08:35:15;;;;;;;1.50;1.15;;;16.80;69.10;;;;;;5042376;28;20114;-85
2023/04/07 08:37:43;;;;;;;1.77;1.10;;;16.90;69.20;;;;;;5026722;28;20118;-84
2023/04/07 08:40:09;;;;;;;1.70;1.25;;;16.90;69.10;;;;;;5043252;28;20098;-84
2023/04/07 08:42:35;;;;;;;0.90;0.80;;;16.90;69.30;;;;;;5042519;28;20103;-84
2023/04/07 08:45:05;;;;;;;1.65;1.10;;;16.80;69.10;;;;;;5026744;28;20037;-84
2023/04/07 08:47:32;;;;;;;2.22;1.10;;;16.90;69.10;;;;;;5010298;28;20132;-83
2023/04/07 08:50:00;;;;;;;2.25;1.10;;;16.90;69.00;;;;;;5022688;28;20064;-83
2023/04/07 08:52:32;;;;;;;1.55;1.10;;;16.90;69.00;;;;;;5027216;28;20450;-83
2023/04/07 08:55:01;;;;;;;2.15;1.00;;;16.90;69.00;;;;;;5017251;28;20374;-83
2023/04/07 08:57:33;;;;;;;1.35;1.25;;;17.00;69.00;;;;;;5032446;28;20040;-83
2023/04/07 09:00:05;;;;;;;1.27;1.17;;;17.00;69.00;;;;;;5036231;28;20045;-83
2023/04/07 09:02:36;;;;;;;2.45;0.95;;;17.00;69.80;;;;;;5032188;28;20029;-83
2023/04/07 09:05:03;;;;;;;0.75;0.75;;;17.00;69.00;;;;;;5043206;28;20560;-83
2023/04/07 09:07:39;;;;;;;2.05;1.10;;;17.00;69.10;;;;;;5025200;28;20064;-83
2023/04/07 09:10:07;;;;;;;1.08;0.95;;;17.10;69.10;;;;;;5026220;28;20037;-83
2023/04/07 09:12:33;;;;;;;0.85;0.85;;;17.10;69.00;;;;;;5042241;28;20045;-83
2023/04/07 09:14:58;;;;;;;1.33;1.23;;;17.10;68.90;;;;;;5049938;28;20552;-83
2023/04/07 09:17:26;;;;;;;0.70;0.63;;;17.10;69.00;;;;;;5026008;28;20055;-83
2023/04/07 09:19:52;;;;;;;1.25;1.25;;;17.10;68.90;;;;;;5042383;28;20045;-83
2023/04/07 09:22:33;;;;;;;1.20;0.88;;;17.10;68.70;;;;;;5020442;28;20044;-84
2023/04/07 09:25:29;;;;;;;1.00;1.00;;;17.10;68.40;;;;;;5023095;28;20568;-83
2023/04/07 09:27:54;;;;;;;0.90;0.90;;;17.20;68.50;;;;;;5044614;28;20064;-81
2023/04/07 09:30:20;;;;;;;0.90;0.90;;;17.30;68.00;;;;;;5049951;28;20509;-80
2023/04/07 09:32:46;;;;;;;0.80;0.70;;;17.30;67.90;;;;;;5029798;28;20053;-82
2023/04/07 09:35:11;;;;;;;1.00;0.82;;;17.40;68.60;;;;;;5031414;28;20079;-85
2023/04/07 09:37:37;;;;;;;1.50;0.70;;;17.40;67.70;;;;;;4996272;28;20041;-84
2023/04/07 09:40:03;;;;;;;1.52;0.98;;;17.40;67.50;;;;;;5048179;28;20041;-81
2023/04/07 09:42:33;;;;;;;0.77;0.77;;;17.50;67.70;;;;;;5031250;28;20533;-82
2023/04/07 09:44:59;;;;;;;1.15;0.90;;;17.50;67.80;;;;;;5057387;28;20053;-83
2023/04/07 09:47:28;;;;;;;1.02;0.77;;;17.50;67.70;;;;;;5023673;28;20037;-83
2023/04/07 09:49:54;;;;;;;0.85;0.82;;;17.50;67.60;;;;;;5031221;28;20056;-82
2023/04/07 09:52:52;;;;;;;2.20;1.02;;;17.50;67.60;;;;;;5031043;28;20042;-83
2023/04/07 09:55:20;;;;;;;2.92;0.68;;;17.60;67.60;;;;;;5038649;28;20053;-82
2023/04/07 09:57:46;;;;;;;1.70;0.80;;;17.60;67.60;;;;;;5030453;28;20094;-84
2023/04/07 10:00:12;;;;;;;0.88;0.70;;;17.60;67.80;;;;;;5036675;28;20506;-89
2023/04/07 10:02:37;;;;;;;3.20;0.90;;;17.60;67.70;;;;;;5041808;28;20046;-87
2023/04/07 10:05:03;;;;;;;3.08;1.10;;;17.60;67.70;;;;;;5040763;28;20041;-88
2023/04/07 10:07:28;;;;;;;0.70;0.70;;;17.60;67.90;;;;;;5024508;28;20430;-84
2023/04/07 10:09:54;;;;;;;0.93;0.93;;;17.60;67.80;;;;;;5027887;28;20528;-86
2023/04/07 10:12:20;;;;;;;2.05;1.42;;;17.60;68.80;;;;;;5018632;28;20045;-88
2023/04/07 10:14:45;;;;;;;2.15;2.05;;;17.50;70.10;;;;;;5011496;28;20338;-87
2023/04/07 10:17:13;;;;;;;2.90;2.80;;;17.60;67.60;;;;;;5029253;28;20059;-87
2023/04/07 10:19:39;;;;;;;4.88;4.57;;;17.60;67.30;;;;;;5029034;28;20350;-87
2023/04/07 10:22:04;;;;;;;4.90;4.50;;;17.60;67.60;;;;;;5028257;28;20049;-82
2023/04/07 10:24:42;;;;;;;6.38;5.97;;;17.70;67.70;;;;;;5033535;28;20573;-85
2023/04/07 10:27:10;;;;;;;6.10;5.80;;;17.70;70.10;;;;;;5051679;28;20045;-86
2023/04/07 10:29:40;;;;;;;5.32;4.60;;;17.70;69.60;;;;;;5013862;28;20065;-85
2023/04/07 10:32:06;;;;;;;4.75;4.45;;;17.80;69.80;;;;;;5012453;28;20422;-88
2023/04/07 10:34:52;;;;;;;4.25;4.05;;;17.80;69.40;;;;;;5031973;28;20040;-86
2023/04/07 10:37:20;;;;;;;3.78;3.58;;;17.90;69.40;;;;;;5043341;28;20033;-85
2023/04/07 10:39:45;;;;;;;3.17;2.97;;;17.90;69.00;;;;;;5008795;28;20044;-85
2023/04/07 10:42:36;;;;;;;3.28;3.08;;;17.90;68.90;;;;;;4674244;28;9999658;-86
2023/04/07 10:45:02;;;;;;;4.38;3.05;;;17.90;68.60;;;;;;5046914;28;20040;-85
2023/04/07 10:47:28;;;;;;;4.70;2.40;;;17.90;68.70;;;;;;5024448;28;20111;-87
2023/04/07 10:50:18;;;;;;;2.60;2.50;;;17.90;68.60;;;;;;5033468;28;20048;-85
2023/04/07 10:52:46;;;;;;;2.30;2.20;;;17.80;68.20;;;;;;5041203;28;20604;-86
2023/04/07 10:55:31;;;;;;;2.92;2.72;;;17.80;68.30;;;;;;5028016;28;20044;-87
2023/04/07 10:58:12;;;;;;;2.63;2.53;;;17.80;68.10;;;;;;5040507;28;20055;-92
2023/04/07 11:00:38;;;;;;;2.20;2.10;;;17.80;68.40;;;;;;5043878;28;20041;-91
2023/04/07 11:03:12;;;;;;;2.00;1.90;;;17.80;68.90;;;;;;5043332;28;20056;-88
2023/04/07 11:05:41;;;;;;;1.90;1.80;;;17.80;68.20;;;;;;5023764;28;20044;-89
2023/04/07 11:08:07;;;;;;;2.05;1.95;;;17.80;68.00;;;;;;5039800;28;20036;-87
2023/04/07 11:10:36;;;;;;;2.03;1.92;;;17.80;68.00;;;;;;5040567;28;20094;-89
2023/04/07 11:13:08;;;;;;;2.50;2.40;;;17.70;68.20;;;;;;5032983;28;20068;-89
2023/04/07 11:15:34;;;;;;;1.75;1.65;;;17.80;68.00;;;;;;5026519;28;20047;-89
2023/04/07 11:18:10;;;;;;;2.55;2.20;;;17.80;67.90;;;;;;5033064;28;20421;-88
2023/04/07 11:20:57;;;;;;;3.88;2.20;;;17.80;67.90;;;;;;5042018;28;20090;-89
2023/04/07 11:23:24;;;;;;;4.82;1.95;;;17.80;68.00;;;;;;5044135;28;20048;-89
2023/04/07 11:25:51;;;;;;;2.08;1.98;;;17.80;67.80;;;;;;5052392;28;20616;-91
2023/04/07 11:28:16;;;;;;;1.77;1.67;;;17.80;68.60;;;;;;5023012;28;20052;-89
2023/04/07 11:30:50;;;;;;;1.70;1.60;;;17.80;67.80;;;;;;5046317;28;20044;-90
2023/04/07 11:33:17;;;;;;;1.95;1.85;;;17.80;67.90;;;;;;5054419;28;20068;-93
2023/04/07 11:35:57;;;;;;;2.20;2.10;;;17.80;68.00;;;;;;5027052;28;20037;-89
2023/04/07 11:38:36;;;;;;;2.00;1.90;;;17.80;67.90;;;;;;5060591;28;20117;-87
2023/04/07 11:41:13;;;;;;;2.17;2.08;;;17.80;67.80;;;;;;5030223;28;20046;-85
2023/04/07 11:43:40;;;;;;;2.10;2.00;;;17.80;67.90;;;;;;5013025;28;20040;-86
2023/04/07 11:46:18;;;;;;;1.75;1.65;;;17.80;68.10;;;;;;5042406;28;20033;-87
2023/04/07 11:48:44;;;;;;;1.75;1.65;;;17.80;68.10;;;;;;5045526;28;20091;-89
2023/04/07 11:51:20;;;;;;;1.75;1.65;;;17.80;68.60;;;;;;5043570;28;20040;-89
2023/04/07 11:53:46;;;;;;;2.00;1.80;;;17.80;67.90;;;;;;5044780;28;20544;-88
2023/04/07 11:56:17;;;;;;;1.70;1.60;;;17.90;67.90;;;;;;5044275;28;20494;-89
2023/04/07 11:58:50;;;;;;;1.98;1.88;;;17.80;67.80;;;;;;5012267;28;20562;-89
2023/04/07 12:01:15;;;;;;;1.40;1.40;;;17.90;67.90;;;;;;5043375;28;20128;-92
2023/04/07 12:04:02;;;;;;;1.50;1.40;;;17.80;67.90;;;;;;5046735;28;20472;-87
2023/04/07 12:06:37;;;;;;;1.88;1.55;;;17.80;68.00;;;;;;5042634;28;20047;-85
2023/04/07 12:09:04;;;;;;;1.50;1.45;;;17.80;68.20;;;;;;5047858;28;20045;-84
2023/04/07 12:11:30;;;;;;;2.67;1.58;;;17.80;68.10;;;;;;5055574;28;20036;-84
2023/04/07 12:13:56;;;;;;;1.70;1.60;;;17.80;68.00;;;;;;4694342;28;10000394;-82
2023/04/07 12:16:22;;;;;;;1.15;1.15;;;17.90;68.00;;;;;;5039243;28;20114;-86
2023/04/07 12:18:48;;;;;;;3.88;1.45;;;17.90;68.10;;;;;;5004032;28;20513;-89
2023/04/07 12:21:13;;;;;;;2.13;1.52;;;17.80;68.70;;;;;;5009751;28;20041;-87
2023/04/07 12:23:40;;;;;;;3.70;1.40;;;17.90;68.50;;;;;;5043179;28;20055;-86
2023/04/07 12:26:05;;;;;;;1.33;1.23;;;17.80;68.70;;;;;;5041561;28;20104;-87
2023/04/07 12:28:31;;;;;;;3.53;1.40;;;17.80;68.80;;;;;;5043370;28;20052;-86
2023/04/07 12:30:56;;;;;;;1.45;1.40;;;17.80;68.60;;;;;;5045712;28;20036;-88
2023/04/07 12:33:22;;;;;;;3.88;1.77;;;17.80;68.70;;;;;;5052533;28;20053;-86
2023/04/07 12:35:48;;;;;;;1.40;1.40;;;17.80;68.70;;;;;;5040378;28;20048;-86
2023/04/07 12:38:13;;;;;;;1.92;1.42;;;17.80;68.60;;;;;;5038171;28;20502;-84
2023/04/07 12:40:39;;;;;;;2.45;1.23;;;17.80;68.80;;;;;;5023645;28;20036;-88
2023/04/07 12:43:05;;;;;;;1.42;1.40;;;17.80;68.90;;;;;;5032428;28;20640;-88
2023/04/07 12:45:31;;;;;;;3.42;1.20;;;17.80;68.80;;;;;;5023723;28;20522;-88